Time;durP1;ratioP1;P1;durP2;ratioP2;P2;SDS_P1;SDS_P2;PMS_P1;PMS_P2;Temp;Humidity;BMP_temperature;BMP_pressure;BME280_temperature;BME280_humidity;BME280_pressure;Samples;Min_cycle;Max_cycle;Signal;HPM_P1;HPM_P2
2023/04/01 00:00:04;;;;;;;13.07;12.77;;;10.10;1.00;;;;;;5080217;28;20525;-80
2023/04/01 00:02:32;;;;;;;13.37;13.07;;;10.10;99.90;;;;;;5082771;28;20944;-82
2023/04/01 00:05:01;;;;;;;13.33;13.03;;;10.20;99.90;;;;;;5083924;28;20459;-80
2023/04/01 00:07:31;;;;;;;13.90;13.30;;;10.10;1.00;;;;;;5084719;28;20534;-79
2023/04/01 00:09:59;;;;;;;13.87;13.37;;;10.10;99.90;;;;;;5084271;28;21097;-77
2023/04/01 00:12:27;;;;;;;13.50;13.10;;;10.10;1.00;;;;;;5085021;28;20442;-78
2023/04/01 00:14:56;;;;;;;13.70;13.20;;;10.10;99.90;;;;;;5084622;28;20448;-78
2023/04/01 00:17:24;;;;;;;13.80;13.30;;;10.10;1.00;;;;;;5081030;28;20572;-79
2023/04/01 00:19:53;;;;;;;13.10;12.70;;;10.10;99.90;;;;;;5086727;28;20489;-80
2023/04/01 00:22:21;;;;;;;13.40;13.10;;;10.10;99.90;;;;;;5087992;28;20502;-80
2023/04/01 00:24:51;;;;;;;14.07;13.57;;;10.20;99.90;;;;;;5089177;28;21169;-81
2023/04/01 00:27:19;;;;;;;13.53;13.23;;;10.20;99.90;;;;;;5086743;28;21089;-82
2023/04/01 00:29:48;;;;;;;13.23;12.83;;;10.20;99.90;;;;;;5085829;28;21004;-83
2023/04/01 00:32:16;;;;;;;12.93;12.63;;;10.20;99.90;;;;;;5084075;28;20452;-78
2023/04/01 00:34:45;;;;;;;13.33;13.00;;;10.30;99.90;;;;;;5086245;28;20453;-79
2023/04/01 00:37:13;;;;;;;13.93;13.20;;;10.30;99.90;;;;;;5086147;28;20476;-78
2023/04/01 00:39:41;;;;;;;13.60;13.10;;;10.20;1.00;;;;;;5087858;28;20488;-77
2023/04/01 00:42:12;;;;;;;13.40;13.00;;;10.20;1.00;;;;;;5084579;28;20461;-78
2023/04/01 00:44:40;;;;;;;13.40;13.10;;;10.10;1.00;;;;;;5084979;28;20450;-79
2023/04/01 00:47:09;;;;;;;13.87;13.47;;;10.20;61.10;;;;;;5087033;28;20986;-79
2023/04/01 00:49:41;;;;;;;13.73;13.27;;;10.20;99.90;;;;;;5098444;28;20519;-80
2023/04/01 00:52:13;;;;;;;13.53;12.97;;;10.20;1.00;;;;;;5084648;28;20441;-79
2023/04/01 00:54:43;;;;;;;13.17;12.77;;;10.20;37.80;;;;;;5084880;28;20459;-80
2023/04/01 00:57:16;;;;;;;13.20;12.90;;;10.20;99.90;;;;;;5087622;28;20525;-79
2023/04/01 00:59:49;;;;;;;13.50;13.20;;;10.20;1.00;;;;;;5081787;28;20458;-81
2023/04/01 01:02:18;;;;;;;14.23;13.60;;;10.20;1.00;;;;;;5084637;28;20457;-80
2023/04/01 01:04:46;;;;;;;13.73;13.27;;;10.20;1.00;;;;;;5082399;28;20462;-81
2023/04/01 01:07:28;;;;;;;13.60;13.13;;;10.30;1.00;;;;;;5083354;28;20448;-80
2023/04/01 01:10:03;;;;;;;13.90;13.40;;;10.30;1.00;;;;;;5081941;28;20508;-78
2023/04/01 01:12:40;;;;;;;14.00;13.60;;;10.20;86.30;;;;;;5086542;28;20483;-80
2023/04/01 01:15:16;;;;;;;13.80;13.50;;;10.10;99.90;;;;;;5087517;28;20446;-81
2023/04/01 01:17:57;;;;;;;13.80;13.30;;;10.20;37.70;;;;;;5086248;28;20500;-80
2023/04/01 01:20:54;;;;;;;13.43;13.00;;;10.20;59.20;;;;;;5087968;28;20464;-80
2023/04/01 01:24:02;;;;;;;13.20;13.00;;;10.10;1.00;;;;;;5085502;28;20510;-78
2023/04/01 01:26:41;;;;;;;13.53;13.10;;;10.20;49.80;;;;;;5087059;28;20456;-80
2023/04/01 01:29:30;;;;;;;13.63;13.33;;;10.20;1.00;;;;;;5085596;28;21093;-80
2023/04/01 01:32:07;;;;;;;13.97;13.57;;;10.20;1.00;;;;;;5083899;28;20583;-79
2023/04/01 01:34:41;;;;;;;13.60;13.20;;;10.30;99.90;;;;;;5086480;28;20441;-76
2023/04/01 01:37:14;;;;;;;13.30;13.00;;;10.20;99.90;;;;;;5083738;28;21243;-80
2023/04/01 01:39:44;;;;;;;13.47;13.13;;;10.20;99.90;;;;;;5083786;28;20472;-82
2023/04/01 01:42:16;;;;;;;13.70;13.40;;;10.20;96.50;;;;;;5084288;28;20447;-78
2023/04/01 01:44:47;;;;;;;13.80;13.40;;;10.30;99.90;;;;;;5084411;28;20452;-80
2023/04/01 01:47:16;;;;;;;13.53;13.13;;;10.30;99.90;;;;;;5087799;28;20473;-84
2023/04/01 01:49:45;;;;;;;13.20;12.90;;;10.30;1.00;;;;;;5088919;28;20481;-81
2023/04/01 01:52:16;;;;;;;13.70;13.30;;;10.20;1.00;;;;;;5091737;28;20485;-80
2023/04/01 01:54:49;;;;;;;13.60;13.20;;;10.30;1.00;;;;;;5087661;28;20440;-79
2023/04/01 01:57:18;;;;;;;13.20;12.90;;;10.30;99.90;;;;;;5090690;28;20470;-78
2023/04/01 01:59:49;;;;;;;13.57;13.17;;;10.20;1.00;;;;;;5091775;28;20481;-81
2023/04/01 02:02:18;;;;;;;13.50;13.10;;;10.20;99.90;;;;;;5081946;28;20473;-81
2023/04/01 02:04:47;;;;;;;13.10;12.80;;;10.20;1.00;;;;;;5090142;28;20449;-79
2023/04/01 02:07:24;;;;;;;13.03;12.73;;;10.20;99.90;;;;;;5083875;28;20445;-83
2023/04/01 02:09:53;;;;;;;13.50;13.20;;;10.10;99.90;;;;;;5103179;28;20493;-81
2023/04/01 02:12:24;;;;;;;13.40;13.10;;;10.10;1.00;;;;;;5085440;28;20728;-81
2023/04/01 02:14:55;;;;;;;13.60;13.30;;;10.10;99.90;;;;;;5084435;28;20464;-79
2023/04/01 02:17:26;;;;;;;13.27;12.87;;;10.10;99.90;;;;;;5085181;28;20838;-79
2023/04/01 02:19:58;;;;;;;13.90;13.50;;;10.10;92.10;;;;;;5081835;28;21037;-78
2023/04/01 02:22:31;;;;;;;13.00;12.70;;;10.00;1.00;;;;;;5086362;28;20448;-79
2023/04/01 02:25:03;;;;;;;13.30;12.90;;;10.00;1.00;;;;;;5085478;28;21026;-80
2023/04/01 02:27:32;;;;;;;13.00;12.80;;;10.00;1.00;;;;;;5085154;28;20848;-82
2023/04/01 02:30:00;;;;;;;13.70;13.40;;;10.00;1.00;;;;;;5085530;28;20489;-80
2023/04/01 02:32:29;;;;;;;13.07;12.77;;;9.90;99.90;;;;;;5085660;28;20449;-78
2023/04/01 02:34:59;;;;;;;12.93;12.63;;;9.90;99.90;;;;;;5083776;28;20471;-77
2023/04/01 02:37:29;;;;;;;12.80;12.60;;;9.90;99.90;;;;;;5083316;28;20475;-77
2023/04/01 02:40:01;;;;;;;12.80;12.60;;;9.90;99.90;;;;;;5081453;28;20502;-80
2023/04/01 02:42:31;;;;;;;12.80;12.60;;;9.80;6.60;;;;;;5084069;28;20496;-78
2023/04/01 02:45:00;;;;;;;12.70;12.50;;;9.80;99.90;;;;;;5083923;28;20465;-79
2023/04/01 02:47:28;;;;;;;12.63;12.43;;;9.90;1.00;;;;;;5088914;28;20513;-76
2023/04/01 02:49:58;;;;;;;12.67;12.43;;;9.90;99.90;;;;;;5087716;28;20484;-80
2023/04/01 02:52:26;;;;;;;12.50;12.30;;;9.90;99.90;;;;;;5085835;28;20555;-82
2023/04/01 02:54:56;;;;;;;13.00;12.80;;;10.00;99.90;;;;;;5089067;28;20453;-82
2023/04/01 02:57:25;;;;;;;12.70;12.50;;;9.90;49.00;;;;;;5089318;28;20877;-82
2023/04/01 02:59:53;;;;;;;12.97;12.63;;;9.90;1.00;;;;;;5087488;28;20573;-80
2023/04/01 03:02:21;;;;;;;12.90;12.70;;;9.80;1.00;;;;;;5079692;28;20465;-79
2023/04/01 03:04:50;;;;;;;12.73;12.47;;;9.90;33.50;;;;;;5087750;28;20460;-80
2023/04/01 03:07:18;;;;;;;12.50;12.20;;;9.90;51.50;;;;;;5089029;28;20453;-81
2023/04/01 03:09:46;;;;;;;12.50;12.20;;;9.90;1.00;;;;;;5089154;28;21002;-79
2023/04/01 03:12:15;;;;;;;12.40;12.20;;;9.80;1.00;;;;;;5087879;28;20450;-81
2023/04/01 03:14:43;;;;;;;12.40;12.20;;;9.80;30.20;;;;;;5087142;28;20456;-82
2023/04/01 03:17:12;;;;;;;12.50;12.30;;;9.90;1.00;;;;;;5085968;28;20451;-78
2023/04/01 03:19:40;;;;;;;12.63;12.33;;;9.90;1.00;;;;;;5087540;28;20487;-80
2023/04/01 03:22:10;;;;;;;13.13;12.83;;;9.90;1.00;;;;;;5084575;28;20500;-78
2023/04/01 03:24:38;;;;;;;12.80;12.60;;;10.00;99.90;;;;;;5084588;28;20573;-79
2023/04/01 03:27:06;;;;;;;12.40;12.20;;;9.90;99.90;;;;;;5086521;28;21089;-78
2023/04/01 03:29:36;;;;;;;12.60;12.40;;;9.80;99.90;;;;;;5087005;28;20558;-78
2023/04/01 03:32:04;;;;;;;12.60;12.20;;;9.80;99.90;;;;;;5084861;28;20514;-78
2023/04/01 03:34:33;;;;;;;12.77;12.37;;;9.80;99.90;;;;;;5085404;28;20466;-79
2023/04/01 03:37:01;;;;;;;12.57;12.30;;;9.90;99.90;;;;;;5086029;28;20449;-78
2023/04/01 03:39:29;;;;;;;12.53;12.33;;;9.90;99.90;;;;;;5084517;28;21009;-78
2023/04/01 03:41:57;;;;;;;12.53;12.33;;;10.00;99.90;;;;;;5086904;28;20450;-79
2023/04/01 03:44:26;;;;;;;12.70;12.40;;;9.90;99.90;;;;;;5088795;28;20472;-80
2023/04/01 03:46:55;;;;;;;12.30;12.10;;;10.00;1.00;;;;;;5088732;28;20499;-81
2023/04/01 03:49:23;;;;;;;12.17;11.97;;;9.90;97.60;;;;;;5088893;28;20459;-80
2023/04/01 03:51:51;;;;;;;12.60;12.30;;;9.90;10.70;;;;;;5087376;28;20451;-79
2023/04/01 03:54:20;;;;;;;12.20;12.00;;;10.00;43.50;;;;;;5084368;28;20457;-77
2023/04/01 03:56:48;;;;;;;12.30;12.10;;;10.00;1.00;;;;;;5086594;28;20442;-80
2023/04/01 03:59:16;;;;;;;12.73;12.43;;;10.00;1.00;;;;;;5085085;28;20571;-77
2023/04/01 04:01:46;;;;;;;12.20;11.90;;;10.00;1.00;;;;;;5083486;28;20602;-79
2023/04/01 04:04:16;;;;;;;10.80;10.60;;;9.90;1.00;;;;;;5081166;28;21097;-79
2023/04/01 04:06:44;;;;;;;10.80;10.50;;;9.90;1.00;;;;;;5083552;28;20461;-81
2023/04/01 04:09:12;;;;;;;10.77;10.57;;;9.80;24.20;;;;;;5085928;28;20458;-78
2023/04/01 04:11:40;;;;;;;10.87;10.67;;;9.80;84.10;;;;;;5085645;28;21035;-81
2023/04/01 04:14:08;;;;;;;10.80;10.50;;;9.80;99.90;;;;;;5085824;28;20438;-78
2023/04/01 04:16:37;;;;;;;10.80;10.50;;;9.80;98.20;;;;;;5087003;28;20463;-79
2023/04/01 04:19:05;;;;;;;10.70;10.50;;;9.80;92.40;;;;;;5085008;28;21377;-79
2023/04/01 04:21:35;;;;;;;10.80;10.60;;;9.70;5.50;;;;;;5085395;28;20877;-79
2023/04/01 04:24:04;;;;;;;10.63;10.43;;;9.70;99.90;;;;;;5081580;28;20445;-78
2023/04/01 04:26:32;;;;;;;10.80;10.60;;;9.70;99.90;;;;;;5079274;28;20465;-82
2023/04/01 04:29:01;;;;;;;10.80;10.60;;;9.70;99.90;;;;;;5080969;28;20472;-79
2023/04/01 04:31:29;;;;;;;11.03;10.83;;;9.70;99.90;;;;;;5085628;28;21041;-80
2023/04/01 04:33:59;;;;;;;11.20;11.00;;;9.60;99.90;;;;;;5087040;28;20520;-77
2023/04/01 04:36:27;;;;;;;11.30;11.00;;;9.60;99.90;;;;;;5085945;28;20445;-82
2023/04/01 04:38:57;;;;;;;10.80;10.60;;;9.50;1.00;;;;;;5074779;28;21022;-80
2023/04/01 04:41:26;;;;;;;11.07;10.87;;;9.50;1.00;;;;;;5082582;28;20454;-80
2023/04/01 04:43:56;;;;;;;11.57;11.20;;;9.50;1.00;;;;;;5086360;28;20453;-78
2023/04/01 04:46:24;;;;;;;11.43;11.10;;;9.40;1.00;;;;;;5087600;28;20515;-79
2023/04/01 04:48:52;;;;;;;11.23;10.83;;;9.40;9.30;;;;;;5084326;28;20448;-77
2023/04/01 04:51:21;;;;;;;11.30;11.00;;;9.40;99.90;;;;;;5082886;28;21359;-80
2023/04/01 04:53:50;;;;;;;11.53;11.33;;;9.40;99.90;;;;;;5083181;28;20526;-78
2023/04/01 04:56:22;;;;;;;11.83;11.50;;;9.40;99.90;;;;;;5086759;28;20521;-80
2023/04/01 04:58:50;;;;;;;11.60;11.40;;;9.40;99.90;;;;;;5082876;28;20499;-78
2023/04/01 05:01:19;;;;;;;12.27;11.77;;;9.50;1.00;;;;;;5087375;28;20441;-80
2023/04/01 05:03:47;;;;;;;13.37;12.87;;;9.60;1.00;;;;;;5088534;28;20532;-79
2023/04/01 05:06:17;;;;;;;13.37;12.87;;;9.60;99.90;;;;;;5089633;28;20456;-82
2023/04/01 05:08:47;;;;;;;13.10;12.80;;;9.50;70.30;;;;;;5089207;28;20465;-80
2023/04/01 05:11:17;;;;;;;13.10;12.70;;;9.50;1.00;;;;;;5089383;28;21504;-81
2023/04/01 05:13:47;;;;;;;13.00;12.70;;;9.60;1.00;;;;;;5087709;28;20523;-80
2023/04/01 05:16:17;;;;;;;13.10;12.67;;;9.50;99.90;;;;;;5088901;28;20452;-80
2023/04/01 05:18:46;;;;;;;13.70;13.30;;;9.60;1.00;;;;;;5087952;28;20463;-80
2023/04/01 05:21:15;;;;;;;13.60;13.20;;;9.50;1.00;;;;;;5088474;28;20462;-81
2023/04/01 05:23:44;;;;;;;14.20;13.80;;;9.40;1.00;;;;;;5085606;28;21048;-83
2023/04/01 05:26:14;;;;;;;14.30;14.00;;;9.30;91.90;;;;;;5086841;28;20459;-81
2023/04/01 05:28:42;;;;;;;14.00;13.70;;;9.40;1.00;;;;;;5083496;28;20462;-80
2023/04/01 05:31:11;;;;;;;14.40;14.00;;;9.40;1.00;;;;;;5084986;28;20515;-81
2023/04/01 05:33:40;;;;;;;14.13;13.73;;;9.40;99.10;;;;;;5091191;28;20457;-80
2023/04/01 05:36:10;;;;;;;14.20;13.70;;;9.40;99.90;;;;;;5088649;28;20462;-80
2023/04/01 05:38:38;;;;;;;14.50;14.10;;;9.40;99.90;;;;;;5087646;28;20468;-80
2023/04/01 05:41:07;;;;;;;13.93;13.50;;;9.50;1.00;;;;;;5081861;28;20565;-82
2023/04/01 05:43:37;;;;;;;13.90;13.60;;;9.50;99.90;;;;;;5084641;28;20493;-81
2023/04/01 05:46:05;;;;;;;14.00;13.50;;;9.40;95.90;;;;;;5084640;28;20481;-79
2023/04/01 05:48:36;;;;;;;13.80;13.40;;;9.50;97.90;;;;;;5086990;28;20452;-80
2023/04/01 05:51:05;;;;;;;13.93;13.63;;;9.50;1.00;;;;;;5086343;28;20484;-79
2023/04/01 05:53:33;;;;;;;13.77;13.47;;;9.50;99.90;;;;;;5086730;28;20460;-81
2023/04/01 05:56:04;;;;;;;13.50;13.20;;;9.50;99.90;;;;;;5082824;28;20446;-79
2023/04/01 05:58:34;;;;;;;13.33;13.03;;;9.50;4.50;;;;;;5084811;28;20452;-78
2023/04/01 06:01:03;;;;;;;14.00;13.60;;;9.60;99.90;;;;;;5083786;28;20473;-81
2023/04/01 06:03:41;;;;;;;13.90;13.40;;;9.60;1.00;;;;;;5088787;28;20452;-80
2023/04/01 06:06:15;;;;;;;13.80;13.50;;;9.70;1.00;;;;;;5087158;28;20472;-79
2023/04/01 06:08:44;;;;;;;14.00;13.50;;;9.70;99.90;;;;;;5083360;28;20455;-82
2023/04/01 06:11:25;;;;;;;13.57;13.17;;;9.80;99.90;;;;;;5082234;28;20480;-80
2023/04/01 06:14:11;;;;;;;13.70;13.30;;;9.80;99.90;;;;;;5084206;28;20444;-79
2023/04/01 06:16:54;;;;;;;13.90;13.50;;;9.70;99.90;;;;;;5084266;28;21004;-80
2023/04/01 06:19:32;;;;;;;13.80;13.40;;;9.90;99.90;;;;;;5084259;28;20468;-79
2023/04/01 06:22:18;;;;;;;13.53;13.23;;;9.90;99.90;;;;;;5085687;28;20913;-80
2023/04/01 06:25:15;;;;;;;13.70;13.40;;;10.00;99.90;;;;;;5086256;28;20452;-76
2023/04/01 06:28:05;;;;;;;13.83;13.53;;;10.00;1.00;;;;;;5084928;28;20463;-78
2023/04/01 06:30:41;;;;;;;14.07;13.47;;;9.90;1.00;;;;;;5085899;28;21021;-79
2023/04/01 06:33:32;;;;;;;14.27;13.67;;;9.90;55.30;;;;;;5080521;28;20449;-77
2023/04/01 06:36:32;;;;;;;13.90;13.60;;;10.00;99.90;;;;;;5091080;28;20455;-79
2023/04/01 06:39:30;;;;;;;13.57;13.27;;;10.00;19.20;;;;;;5087477;28;20482;-81
2023/04/01 06:42:17;;;;;;;13.83;13.43;;;10.00;48.30;;;;;;5079596;28;20487;-80
2023/04/01 06:44:56;;;;;;;13.93;13.43;;;9.90;8.50;;;;;;5087239;28;20455;-80
2023/04/01 06:47:36;;;;;;;14.00;13.60;;;9.80;99.90;;;;;;5083183;28;20452;-78
2023/04/01 06:50:12;;;;;;;13.67;13.40;;;9.80;99.90;;;;;;5089250;28;20226;-79
2023/04/01 06:52:51;;;;;;;13.50;13.00;;;9.80;99.90;;;;;;5084187;28;20473;-78
2023/04/01 06:55:28;;;;;;;14.97;14.57;;;9.80;99.90;;;;;;5085854;28;20521;-81
2023/04/01 06:57:59;;;;;;;14.10;13.70;;;9.90;1.00;;;;;;5084567;28;20455;-80
2023/04/01 07:00:31;;;;;;;13.93;13.53;;;9.90;1.00;;;;;;5085664;28;21018;-77
2023/04/01 07:03:07;;;;;;;13.70;13.30;;;9.90;99.90;;;;;;5079029;28;20468;-84
2023/04/01 07:05:36;;;;;;;13.20;13.00;;;10.00;1.00;;;;;;5083086;28;20468;-82
2023/04/01 07:08:12;;;;;;;14.00;13.60;;;9.90;1.00;;;;;;5081609;28;20458;-79
2023/04/01 07:10:45;;;;;;;13.47;13.10;;;9.90;1.00;;;;;;5082535;28;20804;-82
2023/04/01 07:13:20;;;;;;;13.20;12.97;;;10.00;1.00;;;;;;5082564;28;20971;-80
2023/04/01 07:15:58;;;;;;;13.90;13.40;;;10.00;1.00;;;;;;5080631;28;20455;-79
2023/04/01 07:18:34;;;;;;;13.70;13.23;;;10.00;1.00;;;;;;5079891;28;20990;-79
2023/04/01 07:21:10;;;;;;;13.70;13.23;;;10.00;1.00;;;;;;5082504;28;20486;-79
2023/04/01 07:23:43;;;;;;;13.70;13.30;;;10.00;1.00;;;;;;5083770;28;20498;-81
2023/04/01 07:26:20;;;;;;;13.80;13.50;;;10.00;1.00;;;;;;5086869;28;20825;-79
2023/04/01 07:28:49;;;;;;;14.10;13.80;;;10.10;1.00;;;;;;5084624;28;20462;-81
2023/04/01 07:31:27;;;;;;;14.03;13.73;;;10.00;1.00;;;;;;5089218;28;20508;-81
2023/04/01 07:34:04;;;;;;;14.07;13.60;;;10.10;1.00;;;;;;5089312;28;20548;-81
2023/04/01 07:36:38;;;;;;;14.43;14.00;;;10.20;1.00;;;;;;5089059;28;20512;-80
2023/04/01 07:39:19;;;;;;;14.40;13.87;;;10.10;1.00;;;;;;5090418;28;20466;-79
2023/04/01 07:41:56;;;;;;;13.87;13.47;;;10.00;1.00;;;;;;5085620;28;20474;-78
2023/04/01 07:44:30;;;;;;;14.37;14.07;;;10.10;1.00;;;;;;5089873;28;20456;-81
2023/04/01 07:47:10;;;;;;;13.57;13.20;;;10.10;1.00;;;;;;5086780;28;20450;-82
2023/04/01 07:49:49;;;;;;;13.93;13.43;;;10.20;1.00;;;;;;5090258;28;20540;-81
2023/04/01 07:52:24;;;;;;;14.20;13.73;;;10.10;1.00;;;;;;5089431;28;20451;-81
2023/04/01 07:54:59;;;;;;;13.90;13.60;;;10.10;1.00;;;;;;5088359;28;20513;-82
2023/04/01 07:57:36;;;;;;;14.37;13.97;;;10.10;99.90;;;;;;5087426;28;20452;-84
2023/04/01 08:00:12;;;;;;;14.10;13.80;;;10.20;99.90;;;;;;5088848;28;20474;-82
2023/04/01 08:02:52;;;;;;;13.70;13.40;;;10.10;99.90;;;;;;5090769;28;20464;-81
2023/04/01 08:05:26;;;;;;;13.93;13.60;;;10.10;1.00;;;;;;5088464;28;20465;-83
2023/04/01 08:08:06;;;;;;;13.77;13.27;;;10.10;1.00;;;;;;5086796;28;20475;-81
2023/04/01 08:10:41;;;;;;;14.30;13.90;;;10.20;1.00;;;;;;5087050;28;20551;-79
2023/04/01 08:13:20;;;;;;;13.50;13.20;;;10.20;1.00;;;;;;5078154;28;20531;-83
2023/04/01 08:15:56;;;;;;;14.83;14.43;;;10.20;99.90;;;;;;5088817;28;20460;-79
2023/04/01 08:18:37;;;;;;;14.40;14.00;;;10.30;99.90;;;;;;5080734;28;21455;-76
2023/04/01 08:21:12;;;;;;;13.90;13.60;;;10.30;99.90;;;;;;5078033;28;20219;-81
2023/04/01 08:23:44;;;;;;;14.60;14.20;;;10.50;4.10;;;;;;5073879;28;20561;-77
2023/04/01 08:26:20;;;;;;;14.30;13.90;;;10.50;99.90;;;;;;5083296;28;20863;-77
2023/04/01 08:28:55;;;;;;;13.70;13.40;;;10.50;99.90;;;;;;5081526;28;20461;-77
2023/04/01 08:31:30;;;;;;;14.00;13.60;;;10.40;1.00;;;;;;5084163;28;20448;-77
2023/04/01 08:33:59;;;;;;;13.67;13.37;;;10.40;99.90;;;;;;5076384;28;20988;-80
2023/04/01 08:36:32;;;;;;;13.60;13.30;;;10.40;99.90;;;;;;5083660;28;20473;-77
2023/04/01 08:39:05;;;;;;;13.33;13.13;;;10.30;99.90;;;;;;5079042;28;20450;-77
2023/04/01 08:42:05;;;;;;;14.47;13.93;;;10.40;99.90;;;;;;5081655;28;20465;-78
2023/04/01 08:44:50;;;;;;;14.40;14.00;;;10.30;99.90;;;;;;5067007;28;20465;-78
2023/04/01 08:47:47;;;;;;;14.00;13.60;;;10.20;99.90;;;;;;5079143;28;20444;-79
2023/04/01 08:50:35;;;;;;;14.87;14.43;;;10.30;99.90;;;;;;5080345;28;20586;-78
2023/04/01 08:53:11;;;;;;;15.33;14.83;;;10.20;1.00;;;;;;5079629;28;21326;-78
2023/04/01 08:55:50;;;;;;;13.90;13.60;;;10.00;13.80;;;;;;5082529;28;20459;-78
2023/04/01 08:58:47;;;;;;;14.70;14.30;;;10.10;1.00;;;;;;5078153;28;20445;-78
2023/04/01 09:01:27;;;;;;;14.70;14.30;;;10.20;99.90;;;;;;5071273;28;20472;-79
2023/04/01 09:04:24;;;;;;;14.30;14.00;;;10.30;1.00;;;;;;5080190;28;20474;-78
2023/04/01 09:07:05;;;;;;;14.50;14.20;;;10.30;1.00;;;;;;5081629;28;20518;-78
2023/04/01 09:10:12;;;;;;;14.70;14.30;;;10.50;99.90;;;;;;5079713;28;20469;-78
2023/04/01 09:13:17;;;;;;;14.77;14.47;;;10.50;99.90;;;;;;5070918;28;20461;-80
2023/04/01 09:16:19;;;;;;;14.87;14.47;;;10.70;1.00;;;;;;5049776;28;21062;-80
2023/04/01 09:19:12;;;;;;;14.90;14.60;;;10.70;99.90;;;;;;5078882;28;20835;-79
2023/04/01 09:21:59;;;;;;;14.80;14.50;;;10.90;99.90;;;;;;5080625;28;20476;-79
2023/04/01 09:24:41;;;;;;;14.70;14.40;;;11.00;99.90;;;;;;5077140;28;20459;-78
2023/04/01 09:27:26;;;;;;;15.30;14.90;;;11.20;6.20;;;;;;5075645;28;20542;-77
2023/04/01 09:30:20;;;;;;;15.10;14.80;;;11.40;1.00;;;;;;5080422;28;20466;-80
2023/04/01 09:33:24;;;;;;;15.40;15.00;;;11.40;99.90;;;;;;5076752;28;20453;-80
2023/04/01 09:36:04;;;;;;;15.27;14.87;;;11.30;99.90;;;;;;5079987;28;20955;-81
2023/04/01 09:38:44;;;;;;;15.03;14.63;;;11.20;99.90;;;;;;5089807;28;20454;-79
2023/04/01 09:41:22;;;;;;;15.20;14.80;;;11.00;99.90;;;;;;5079058;28;20531;-81
2023/04/01 09:44:04;;;;;;;15.00;14.70;;;11.00;94.60;;;;;;5080656;28;20554;-78
2023/04/01 09:46:52;;;;;;;16.23;15.63;;;10.80;99.90;;;;;;5081540;28;20454;-78
2023/04/01 09:49:42;;;;;;;16.63;16.00;;;10.80;99.90;;;;;;5083511;28;20481;-78
2023/04/01 09:52:22;;;;;;;15.10;14.70;;;10.80;1.00;;;;;;5080039;28;20527;-76
2023/04/01 09:55:20;;;;;;;14.67;14.30;;;10.90;1.00;;;;;;5074879;28;20460;-77
2023/04/01 09:58:11;;;;;;;14.17;13.87;;;10.70;1.00;;;;;;5078215;28;20477;-79
2023/04/01 10:01:12;;;;;;;14.30;14.00;;;10.60;99.90;;;;;;5086019;28;20478;-80
2023/04/01 10:04:22;;;;;;;14.40;14.10;;;10.60;1.00;;;;;;5081993;28;20787;-77
2023/04/01 10:07:21;;;;;;;13.90;13.60;;;10.40;99.90;;;;;;5084231;28;21231;-77
2023/04/01 10:10:38;;;;;;;14.03;13.70;;;10.50;1.00;;;;;;5086476;28;20527;-77
2023/04/01 10:13:36;;;;;;;14.50;14.00;;;10.60;24.20;;;;;;5083497;28;20453;-79
2023/04/01 10:16:20;;;;;;;14.20;13.90;;;10.50;99.90;;;;;;5079287;28;20469;-79
2023/04/01 10:19:06;;;;;;;14.80;14.00;;;10.50;99.90;;;;;;5085896;28;20449;-78
2023/04/01 10:22:11;;;;;;;14.10;13.80;;;10.50;1.00;;;;;;5088720;28;20478;-80
2023/04/01 10:25:26;;;;;;;14.20;13.90;;;10.60;99.90;;;;;;5083172;28;20486;-78
2023/04/01 10:28:27;;;;;;;14.07;13.73;;;10.70;99.90;;;;;;5028546;28;20467;-78
2023/04/01 10:31:35;;;;;;;14.80;14.50;;;10.80;99.90;;;;;;5087608;28;21128;-77
2023/04/01 10:34:40;;;;;;;14.70;14.33;;;11.10;9.00;;;;;;5081210;28;20466;-76
2023/04/01 10:37:20;;;;;;;15.55;15.10;;;11.30;1.00;;;;;;5087417;28;20459;-80
2023/04/01 10:40:18;;;;;;;14.90;14.60;;;11.50;99.90;;;;;;5088024;28;20824;-78
2023/04/01 10:43:35;;;;;;;14.77;14.47;;;11.70;99.90;;;;;;5087486;28;20484;-80
2023/04/01 10:46:41;;;;;;;14.90;14.60;;;12.00;99.90;;;;;;5088033;28;20469;-79
2023/04/01 10:49:38;;;;;;;14.70;14.40;;;12.00;37.90;;;;;;5085429;28;20487;-80
2023/04/01 10:52:33;;;;;;;14.60;14.30;;;12.10;1.00;;;;;;5083627;28;20466;-80
2023/04/01 10:55:28;;;;;;;14.30;14.00;;;12.10;1.00;;;;;;5078375;28;20512;-78
2023/04/01 10:58:24;;;;;;;14.07;13.77;;;11.90;1.00;;;;;;5071696;28;20468;-78
2023/04/01 11:01:14;;;;;;;14.60;14.10;;;11.70;1.00;;;;;;5086412;28;21128;-76
2023/04/01 11:04:17;;;;;;;14.43;14.00;;;11.60;1.00;;;;;;5084222;28;20586;-78
2023/04/01 11:07:09;;;;;;;12.40;12.20;;;11.60;1.00;;;;;;5085931;28;20446;-82
2023/04/01 11:10:27;;;;;;;12.70;12.50;;;11.60;1.00;;;;;;5082286;28;20471;-83
2023/04/01 11:13:35;;;;;;;14.67;13.63;;;11.40;93.80;;;;;;5032217;28;20469;-80
2023/04/01 11:16:51;;;;;;;11.90;11.70;;;11.50;98.40;;;;;;5042882;28;20463;-80
2023/04/01 11:19:51;;;;;;;11.90;11.70;;;11.50;3.40;;;;;;5068217;28;21006;-78
2023/04/01 11:22:46;;;;;;;14.20;13.70;;;11.50;1.00;;;;;;5077181;28;21016;-79
2023/04/01 11:25:59;;;;;;;13.93;13.63;;;11.50;74.60;;;;;;5087888;28;20542;-79
2023/04/01 11:28:51;;;;;;;13.90;13.60;;;11.50;23.50;;;;;;5016409;28;20473;-80
2023/04/01 11:31:36;;;;;;;13.80;13.60;;;11.50;19.90;;;;;;5085520;28;20450;-79
2023/04/01 11:34:14;;;;;;;13.77;13.47;;;11.30;1.00;;;;;;5086057;28;20438;-80
2023/04/01 11:36:53;;;;;;;13.27;13.07;;;11.30;82.10;;;;;;5086154;28;20580;-81
2023/04/01 11:39:28;;;;;;;13.30;13.10;;;11.30;99.90;;;;;;5082895;28;21056;-81
2023/04/01 11:42:10;;;;;;;13.70;13.40;;;11.30;43.00;;;;;;5082531;28;20453;-83
2023/04/01 11:44:48;;;;;;;13.50;13.30;;;11.30;75.70;;;;;;5095899;28;20448;-81
2023/04/01 11:47:32;;;;;;;13.40;13.20;;;11.30;55.00;;;;;;5082954;28;21234;-79
2023/04/01 11:50:14;;;;;;;13.40;13.20;;;11.30;66.70;;;;;;5084628;28;20541;-79
2023/04/01 11:53:02;;;;;;;13.77;13.47;;;11.20;38.30;;;;;;5087048;28;20462;-79
2023/04/01 11:55:42;;;;;;;13.90;13.60;;;11.10;99.90;;;;;;5086540;28;20996;-80
2023/04/01 11:58:50;;;;;;;13.60;13.40;;;11.20;99.90;;;;;;5080469;28;20193;-80
2023/04/01 12:01:33;;;;;;;14.03;13.73;;;11.30;99.90;;;;;;5085041;28;20450;-81
2023/04/01 12:04:36;;;;;;;13.93;13.67;;;11.30;99.90;;;;;;5082101;28;21050;-81
2023/04/01 12:07:14;;;;;;;14.20;13.90;;;11.50;99.90;;;;;;5089287;28;20532;-80
2023/04/01 12:09:52;;;;;;;14.00;13.70;;;11.40;99.90;;;;;;5088265;28;20621;-80
2023/04/01 12:12:30;;;;;;;14.20;13.80;;;11.40;90.70;;;;;;5090256;28;20764;-82
2023/04/01 12:15:13;;;;;;;14.50;14.20;;;11.30;93.10;;;;;;5087806;28;20947;-80
2023/04/01 12:17:50;;;;;;;14.10;13.80;;;11.40;99.90;;;;;;5083086;28;20893;-82
2023/04/01 12:20:44;;;;;;;14.40;13.90;;;11.50;55.10;;;;;;5088681;28;20465;-82
2023/04/01 12:23:31;;;;;;;14.07;13.77;;;11.60;94.80;;;;;;5076018;28;20478;-77
2023/04/01 12:26:23;;;;;;;14.10;13.80;;;11.50;99.90;;;;;;5085582;28;20454;-81
2023/04/01 12:29:09;;;;;;;14.00;13.70;;;11.60;99.90;;;;;;5085078;28;20445;-80
2023/04/01 12:31:52;;;;;;;14.13;13.83;;;11.50;99.90;;;;;;5063025;28;21940;-80
2023/04/01 12:34:51;;;;;;;13.90;13.60;;;11.50;99.90;;;;;;5079583;28;20478;-81
2023/04/01 12:37:27;;;;;;;14.40;14.10;;;11.60;99.90;;;;;;5084721;28;20449;-79
2023/04/01 12:40:28;;;;;;;13.70;13.50;;;11.60;99.90;;;;;;5084002;28;20538;-80
2023/04/01 12:43:06;;;;;;;14.03;13.73;;;11.60;99.90;;;;;;5084565;28;20501;-80
2023/04/01 12:45:36;;;;;;;13.90;13.60;;;11.50;60.60;;;;;;5082503;28;20458;-79
2023/04/01 12:48:50;;;;;;;13.60;13.40;;;11.70;99.90;;;;;;5079271;28;20492;-80
2023/04/01 12:51:46;;;;;;;14.27;13.97;;;11.80;1.00;;;;;;5083407;28;20459;-80
2023/04/01 12:54:46;;;;;;;13.80;13.50;;;11.80;1.00;;;;;;5083029;28;20451;-80
2023/04/01 12:57:35;;;;;;;13.67;13.40;;;11.90;1.00;;;;;;5085517;28;20453;-79
2023/04/01 13:00:26;;;;;;;13.60;13.40;;;12.00;1.00;;;;;;5083774;28;21010;-82
2023/04/01 13:03:18;;;;;;;15.17;14.67;;;12.10;1.00;;;;;;5087055;28;20480;-80
2023/04/01 13:06:11;;;;;;;13.40;13.20;;;12.10;1.00;;;;;;5080470;28;20522;-81
2023/04/01 13:08:50;;;;;;;13.70;13.40;;;12.00;1.00;;;;;;5084090;28;20527;-80
2023/04/01 13:11:25;;;;;;;13.87;13.57;;;11.90;1.00;;;;;;5081927;28;20445;-80
2023/04/01 13:14:24;;;;;;;13.53;13.33;;;11.70;1.00;;;;;;5078240;28;20958;-81
2023/04/01 13:17:05;;;;;;;13.45;13.15;;;11.70;1.00;;;;;;5084208;28;20451;-78
2023/04/01 13:19:40;;;;;;;13.80;13.50;;;11.80;16.30;;;;;;5083037;28;20235;-78
2023/04/01 13:22:20;;;;;;;13.60;13.30;;;11.90;1.00;;;;;;5085019;28;20443;-77
2023/04/01 13:25:00;;;;;;;13.43;13.23;;;12.00;1.00;;;;;;5085507;28;20475;-81
2023/04/01 13:27:35;;;;;;;13.80;13.50;;;12.10;1.00;;;;;;5084365;28;20859;-80
2023/04/01 13:30:19;;;;;;;13.40;13.10;;;12.00;1.00;;;;;;5080109;28;20488;-79